createdAt,value
2023-05-21T00:01:41.540Z,41.22
2023-05-21T00:04:13.321Z,42.85
2023-05-21T00:06:43.777Z,41.20
2023-05-21T00:09:14.446Z,42.25
2023-05-21T00:11:44.613Z,41.30
2023-05-21T00:14:14.359Z,41.63
2023-05-21T00:16:46.556Z,50.60
2023-05-21T00:19:17.113Z,42.25
2023-05-21T00:21:47.523Z,42.28
2023-05-21T00:24:17.709Z,42.15
2023-05-21T00:26:47.559Z,42.92
2023-05-21T00:29:17.558Z,40.63
2023-05-21T00:31:47.748Z,42.95
2023-05-21T00:34:18.614Z,42.55
2023-05-21T00:36:48.900Z,58.22
2023-05-21T00:39:19.241Z,55.53
2023-05-21T00:41:50.122Z,41.30
2023-05-21T00:44:21.267Z,42.03
2023-05-21T00:46:55.042Z,42.95
2023-05-21T00:49:26.006Z,44.40
2023-05-21T00:51:56.534Z,43.15
2023-05-21T00:54:26.687Z,41.88
2023-05-21T00:56:57.805Z,42.90
2023-05-21T00:59:27.913Z,42.50
2023-05-21T01:01:58.735Z,44.25
2023-05-21T01:04:28.761Z,43.65
2023-05-21T01:07:00.149Z,44.00
2023-05-21T01:09:30.947Z,43.55
2023-05-21T01:12:02.614Z,54.45
2023-05-21T01:14:34.339Z,41.58
2023-05-21T01:17:07.194Z,42.40
2023-05-21T01:19:37.863Z,41.30
2023-05-21T01:22:10.631Z,42.50
2023-05-21T01:24:40.834Z,38.92
2023-05-21T01:27:11.970Z,39.53
2023-05-21T01:29:42.297Z,37.25
2023-05-21T01:32:42.844Z,37.13
2023-05-21T01:35:22.696Z,38.47
2023-05-21T01:38:31.951Z,38.20
2023-05-21T01:41:09.712Z,57.75
2023-05-21T01:43:43.323Z,39.45
2023-05-21T01:46:19.080Z,46.28
2023-05-21T01:48:51.815Z,36.90
2023-05-21T01:51:22.565Z,38.22
2023-05-21T01:53:52.317Z,40.00
2023-05-21T01:56:24.614Z,40.20
2023-05-21T01:58:55.400Z,38.63
2023-05-21T02:01:25.570Z,38.60
2023-05-21T02:03:55.839Z,37.38
2023-05-21T02:06:26.044Z,39.30
2023-05-21T02:08:57.163Z,39.47
2023-05-21T02:11:27.726Z,37.22
2023-05-21T02:13:58.990Z,36.78
2023-05-21T02:16:29.008Z,37.45
2023-05-21T02:18:59.386Z,39.35
2023-05-21T02:21:29.537Z,38.03
2023-05-21T02:23:59.379Z,37.47
2023-05-21T02:26:29.799Z,37.85
2023-05-21T02:28:59.635Z,38.35
2023-05-21T02:31:29.835Z,37.92
2023-05-21T02:33:59.586Z,39.08
2023-05-21T02:36:30.395Z,35.80
2023-05-21T02:39:00.351Z,37.08
2023-05-21T02:41:30.419Z,36.45
2023-05-21T02:44:00.433Z,37.53
2023-05-21T02:46:30.456Z,34.70
2023-05-21T02:49:00.908Z,36.38
2023-05-21T02:51:30.737Z,36.05
2023-05-21T02:54:00.970Z,35.55
2023-05-21T02:56:30.997Z,35.50
2023-05-21T02:59:00.953Z,33.53
2023-05-21T03:01:30.892Z,35.20
2023-05-21T03:04:00.879Z,33.35
2023-05-21T03:06:31.033Z,32.47
2023-05-21T03:09:01.110Z,30.98
2023-05-21T03:11:30.999Z,34.30
2023-05-21T03:14:01.834Z,34.17
2023-05-21T03:16:35.962Z,32.05
2023-05-21T03:19:06.200Z,32.78
2023-05-21T03:21:36.192Z,33.05
2023-05-21T03:24:08.009Z,33.67
2023-05-21T03:26:38.173Z,32.67
2023-05-21T03:29:08.197Z,33.90
2023-05-21T03:31:39.088Z,33.28
2023-05-21T03:34:14.342Z,33.70
2023-05-21T03:36:44.318Z,34.03
2023-05-21T03:39:14.506Z,32.75
2023-05-21T03:41:45.129Z,32.58
2023-05-21T03:44:29.539Z,32.58
2023-05-21T03:47:07.605Z,33.30
2023-05-21T03:49:39.058Z,33.55
2023-05-21T03:52:10.188Z,32.40
2023-05-21T03:54:40.437Z,32.17
2023-05-21T03:57:12.491Z,31.88
2023-05-21T03:59:43.997Z,31.15
2023-05-21T04:02:14.098Z,32.47
2023-05-21T04:04:46.008Z,32.45
2023-05-21T04:07:17.000Z,30.45
2023-05-21T04:09:48.165Z,31.65
2023-05-21T04:12:20.681Z,30.00
2023-05-21T04:14:50.857Z,28.77
2023-05-21T04:17:22.439Z,30.17
2023-05-21T04:19:53.894Z,30.50
2023-05-21T04:22:27.902Z,30.20
2023-05-21T04:24:58.238Z,30.17
2023-05-21T04:27:32.444Z,28.98
2023-05-21T04:30:02.801Z,28.52
2023-05-21T04:32:35.025Z,29.00
2023-05-21T04:35:05.804Z,28.25
2023-05-21T04:37:36.675Z,28.38
2023-05-21T04:40:08.667Z,28.73
2023-05-21T04:42:39.002Z,29.15
2023-05-21T04:45:10.303Z,23.98
2023-05-21T04:47:42.641Z,21.55
2023-05-21T04:50:13.485Z,21.88
2023-05-21T04:52:43.764Z,26.15
2023-05-21T04:55:14.011Z,26.90
2023-05-21T04:57:44.042Z,27.35
2023-05-21T05:00:15.371Z,26.40
2023-05-21T05:02:46.539Z,27.58
2023-05-21T05:05:17.421Z,26.92
2023-05-21T05:07:47.282Z,27.13
2023-05-21T05:10:18.940Z,27.15
2023-05-21T05:12:48.982Z,26.65
2023-05-21T05:15:20.795Z,27.70
2023-05-21T05:17:52.005Z,27.75
2023-05-21T05:20:22.224Z,27.85
2023-05-21T05:22:53.333Z,26.35
2023-05-21T05:25:23.710Z,25.67
2023-05-21T05:27:53.661Z,25.67
2023-05-21T05:30:23.810Z,27.60
2023-05-21T05:32:54.983Z,25.73
2023-05-21T05:35:25.280Z,24.50
2023-05-21T05:37:55.131Z,23.95
2023-05-21T05:40:25.078Z,24.92
2023-05-21T05:42:54.926Z,24.75
2023-05-21T05:45:25.262Z,25.52
2023-05-21T05:47:56.868Z,23.73
2023-05-21T05:50:27.319Z,23.73
2023-05-21T05:52:57.349Z,24.52
2023-05-21T05:55:28.216Z,21.80
2023-05-21T05:57:58.752Z,21.05
2023-05-21T06:00:31.468Z,21.70
2023-05-21T06:03:02.857Z,22.70
2023-05-21T06:05:34.364Z,21.48
2023-05-21T06:08:04.687Z,22.48
2023-05-21T06:10:34.416Z,23.08
2023-05-21T06:13:04.401Z,25.35
2023-05-21T06:15:36.670Z,23.25
2023-05-21T06:18:07.493Z,22.52
2023-05-21T06:20:38.058Z,26.38
2023-05-21T06:23:10.333Z,23.30
2023-05-21T06:25:42.401Z,24.17
2023-05-21T06:28:12.536Z,23.00
2023-05-21T06:30:43.934Z,23.80
2023-05-21T06:33:14.424Z,24.60
2023-05-21T06:35:45.076Z,25.13
2023-05-21T06:38:15.319Z,23.52
2023-05-21T06:40:48.968Z,23.25
2023-05-21T06:43:33.527Z,26.73
2023-05-21T06:46:23.435Z,27.77
2023-05-21T06:48:55.196Z,25.70
2023-05-21T06:51:25.203Z,23.33
2023-05-21T06:53:55.196Z,24.38
2023-05-21T06:56:25.502Z,24.60
2023-05-21T06:58:57.494Z,24.27
2023-05-21T07:01:29.178Z,22.75
2023-05-21T07:03:59.692Z,24.27
2023-05-21T07:06:29.550Z,24.00
2023-05-21T07:09:00.561Z,23.77
2023-05-21T07:11:31.718Z,24.20
2023-05-21T07:14:03.497Z,23.80
2023-05-21T07:16:36.012Z,23.13
2023-05-21T07:19:07.483Z,24.23
2023-05-21T07:21:37.680Z,22.77
2023-05-21T07:24:10.164Z,24.90
2023-05-21T07:26:42.637Z,23.85
2023-05-21T07:29:13.852Z,23.52
2023-05-21T07:31:44.078Z,23.10
2023-05-21T07:34:13.946Z,22.92
2023-05-21T07:36:44.814Z,22.38
2023-05-21T07:39:14.626Z,22.98
2023-05-21T07:41:45.552Z,22.77
2023-05-21T07:44:15.890Z,22.05
2023-05-21T07:46:48.262Z,22.88
2023-05-21T07:49:19.801Z,21.83
2023-05-21T07:51:51.322Z,20.83
2023-05-21T07:54:22.232Z,23.13
2023-05-21T07:56:52.832Z,22.63
2023-05-21T07:59:42.273Z,22.42
2023-05-21T08:02:14.683Z,22.17
2023-05-21T08:04:44.772Z,23.70
2023-05-21T08:07:15.272Z,21.90
2023-05-21T08:09:46.010Z,21.52
2023-05-21T08:12:17.432Z,23.13
2023-05-21T08:14:48.327Z,21.70
2023-05-21T08:17:19.316Z,20.58
2023-05-21T08:19:49.578Z,30.35
2023-05-21T08:22:19.669Z,22.10
2023-05-21T08:24:50.817Z,21.80
2023-05-21T08:27:21.262Z,22.40
2023-05-21T08:29:51.263Z,22.05
2023-05-21T08:32:21.289Z,23.48
2023-05-21T08:34:51.171Z,22.83
2023-05-21T08:37:36.685Z,22.65
2023-05-21T08:40:21.791Z,22.15
2023-05-21T08:42:55.630Z,22.25
2023-05-21T08:45:42.980Z,22.92
2023-05-21T08:48:14.823Z,23.42
2023-05-21T08:50:45.760Z,22.40
2023-05-21T08:53:27.962Z,22.17
2023-05-21T08:55:59.834Z,22.67
2023-05-21T08:58:49.080Z,22.60
2023-05-21T09:01:25.743Z,21.10
2023-05-21T09:04:19.428Z,23.67
2023-05-21T09:06:53.464Z,22.33
2023-05-21T09:09:52.797Z,23.65
2023-05-21T09:12:23.831Z,24.52
2023-05-21T09:14:54.882Z,23.42
2023-05-21T09:17:30.471Z,23.38
2023-05-21T09:20:16.723Z,23.67
2023-05-21T09:22:53.324Z,23.90
2023-05-21T09:25:32.849Z,23.55
2023-05-21T09:28:18.027Z,24.00
2023-05-21T09:30:49.701Z,23.38
2023-05-21T09:33:33.565Z,25.50
2023-05-21T09:36:04.419Z,25.27
2023-05-21T09:38:36.592Z,25.23
2023-05-21T09:41:10.117Z,24.92
2023-05-21T09:43:46.753Z,26.33
2023-05-21T09:46:17.892Z,25.15
2023-05-21T09:48:48.074Z,25.33
2023-05-21T09:51:23.144Z,28.15
2023-05-21T09:54:01.575Z,26.98
2023-05-21T09:56:33.748Z,25.95
2023-05-21T09:59:08.800Z,23.63
2023-05-21T10:01:40.226Z,23.85
2023-05-21T10:04:11.604Z,23.67
2023-05-21T10:06:50.795Z,22.95
2023-05-21T10:09:22.132Z,22.77
2023-05-21T10:11:55.411Z,23.30
2023-05-21T10:14:29.803Z,23.40
2023-05-21T10:17:00.777Z,24.38
2023-05-21T10:19:33.337Z,23.52
2023-05-21T10:22:05.912Z,23.95
2023-05-21T10:24:36.872Z,27.00
2023-05-21T10:27:08.013Z,28.25
2023-05-21T10:29:40.213Z,27.58
2023-05-21T10:32:10.830Z,25.15
2023-05-21T10:34:41.030Z,26.77
2023-05-21T10:37:12.006Z,24.90
2023-05-21T10:39:42.789Z,24.75
2023-05-21T10:42:51.848Z,26.15
2023-05-21T10:45:55.930Z,27.85
2023-05-21T10:49:00.905Z,27.75
2023-05-21T10:51:55.683Z,28.00
2023-05-21T10:55:04.895Z,29.40
2023-05-21T10:58:14.042Z,29.65
2023-05-21T11:00:45.541Z,27.83
2023-05-21T11:03:16.819Z,27.25
2023-05-21T11:05:59.592Z,28.45
2023-05-21T11:08:38.832Z,30.13
2023-05-21T11:11:10.628Z,28.83
2023-05-21T11:13:51.312Z,29.10
2023-05-21T11:16:27.029Z,29.90
2023-05-21T11:19:00.284Z,27.45
2023-05-21T11:21:32.671Z,29.48
2023-05-21T11:24:05.134Z,33.35
2023-05-21T11:27:03.826Z,28.63
2023-05-21T11:29:45.840Z,29.02
2023-05-21T11:32:18.813Z,28.67
2023-05-21T11:34:49.929Z,29.17
2023-05-21T11:37:30.473Z,34.03
2023-05-21T11:40:21.421Z,35.20
2023-05-21T11:42:54.218Z,38.97
2023-05-21T11:45:26.494Z,42.78
2023-05-21T11:47:58.252Z,47.70
2023-05-21T11:50:32.003Z,50.22
2023-05-21T11:53:02.542Z,50.10
2023-05-21T11:55:33.881Z,53.95
2023-05-21T11:58:04.947Z,59.15
2023-05-21T12:00:42.395Z,63.63
2023-05-21T12:03:18.620Z,63.80
2023-05-21T12:05:51.258Z,58.08
2023-05-21T12:08:27.161Z,58.28
2023-05-21T12:11:03.646Z,59.92
2023-05-21T12:13:33.990Z,61.25
2023-05-21T12:16:06.806Z,60.80
2023-05-21T12:18:39.435Z,61.17
2023-05-21T12:21:11.770Z,63.05
2023-05-21T12:23:43.386Z,60.80
2023-05-21T12:26:13.959Z,60.33
2023-05-21T12:28:43.852Z,61.58
2023-05-21T12:31:48.710Z,58.47
2023-05-21T12:34:38.718Z,58.42
2023-05-21T12:37:09.979Z,57.72
2023-05-21T12:39:47.800Z,59.63
2023-05-21T12:42:18.236Z,59.55
2023-05-21T12:44:49.541Z,56.17
2023-05-21T12:47:20.093Z,55.25
2023-05-21T12:49:50.133Z,50.58
2023-05-21T12:52:22.666Z,51.58
2023-05-21T12:54:55.820Z,48.67
2023-05-21T12:57:47.095Z,48.83
2023-05-21T13:00:24.948Z,47.63
2023-05-21T13:02:55.059Z,47.75
2023-05-21T13:05:24.870Z,45.90
2023-05-21T13:07:55.135Z,46.75
2023-05-21T13:10:25.028Z,47.58
2023-05-21T13:12:54.941Z,51.17
2023-05-21T13:15:24.795Z,54.90
2023-05-21T13:17:56.774Z,51.53
2023-05-21T13:20:28.746Z,39.00
2023-05-21T13:22:58.548Z,30.20
2023-05-21T13:25:34.067Z,28.88
2023-05-21T13:28:06.625Z,23.52
2023-05-21T13:30:37.247Z,21.88
2023-05-21T13:33:08.692Z,21.20
2023-05-21T13:35:39.443Z,21.08
2023-05-21T13:38:09.296Z,20.17
2023-05-21T13:40:39.413Z,18.30
2023-05-21T13:43:09.404Z,18.23
2023-05-21T13:45:40.435Z,18.10
2023-05-21T13:48:10.883Z,19.90
2023-05-21T13:50:40.781Z,20.23
2023-05-21T13:53:10.867Z,18.92
2023-05-21T13:55:40.756Z,20.40
2023-05-21T13:58:10.856Z,19.95
2023-05-21T14:00:42.563Z,18.67
2023-05-21T14:03:12.963Z,18.73
2023-05-21T14:05:46.376Z,18.42
2023-05-21T14:08:21.418Z,18.35
2023-05-21T14:10:52.024Z,20.50
2023-05-21T14:13:22.560Z,19.73
2023-05-21T14:15:52.447Z,20.02
2023-05-21T14:18:22.462Z,18.73
2023-05-21T14:20:52.370Z,19.80
2023-05-21T14:23:22.616Z,19.55
2023-05-21T14:25:52.484Z,23.80
2023-05-21T14:28:22.589Z,21.08
2023-05-21T14:30:52.577Z,18.63
2023-05-21T14:33:25.884Z,18.50
2023-05-21T14:35:55.994Z,18.90
2023-05-21T14:38:25.955Z,19.08
2023-05-21T14:40:56.516Z,19.33
2023-05-21T14:43:26.359Z,21.30
2023-05-21T14:45:56.384Z,21.77
2023-05-21T14:48:26.298Z,21.17
2023-05-21T14:50:56.617Z,21.67
2023-05-21T14:53:26.489Z,20.77
2023-05-21T14:55:58.627Z,20.85
2023-05-21T14:58:28.634Z,22.48
2023-05-21T15:00:58.513Z,20.13
2023-05-21T15:03:28.914Z,21.95
2023-05-21T15:05:59.955Z,20.95
2023-05-21T15:08:30.204Z,22.10
2023-05-21T15:11:00.060Z,22.27
2023-05-21T15:13:31.053Z,21.95
2023-05-21T15:16:01.254Z,23.50
2023-05-21T15:18:34.189Z,22.90
2023-05-21T15:21:04.348Z,24.08
2023-05-21T15:23:34.204Z,23.65
2023-05-21T15:26:04.276Z,23.80
2023-05-21T15:28:35.995Z,24.75
2023-05-21T15:31:06.305Z,25.75
2023-05-21T15:33:36.208Z,23.65
2023-05-21T15:36:06.285Z,24.40
2023-05-21T15:38:36.255Z,23.98
2023-05-21T15:41:07.617Z,23.88
2023-05-21T15:43:37.987Z,23.58
2023-05-21T15:46:08.208Z,25.90
2023-05-21T15:48:38.410Z,26.17
2023-05-21T15:51:10.171Z,24.30
2023-05-21T15:53:40.215Z,25.55
2023-05-21T15:56:10.684Z,25.63
2023-05-21T15:58:41.907Z,32.05
2023-05-21T16:01:12.219Z,28.17
2023-05-21T16:03:42.347Z,24.17
2023-05-21T16:06:13.139Z,24.75
2023-05-21T16:08:43.339Z,24.40
2023-05-21T16:11:13.182Z,26.20
2023-05-21T16:13:46.174Z,25.25
2023-05-21T16:16:16.422Z,25.60
2023-05-21T16:18:48.155Z,24.15
2023-05-21T16:21:18.710Z,25.58
2023-05-21T16:23:48.854Z,23.42
2023-05-21T16:26:18.874Z,25.35
2023-05-21T16:28:50.804Z,24.00
2023-05-21T16:31:20.679Z,24.23
2023-05-21T16:33:50.716Z,24.90
2023-05-21T16:36:20.526Z,26.25
2023-05-21T16:38:50.729Z,25.17
2023-05-21T16:41:21.581Z,24.80
2023-05-21T16:43:53.914Z,25.55
2023-05-21T16:46:23.936Z,25.35
2023-05-21T16:48:53.777Z,25.88
2023-05-21T16:51:23.914Z,24.50
2023-05-21T16:53:53.764Z,26.55
2023-05-21T16:56:23.914Z,26.92
2023-05-21T16:58:53.747Z,25.95
2023-05-21T17:01:24.163Z,27.13
2023-05-21T17:03:54.971Z,27.98
2023-05-21T17:06:26.405Z,28.10
2023-05-21T17:08:56.470Z,30.38
2023-05-21T17:11:27.615Z,32.05
2023-05-21T17:13:59.144Z,31.73
2023-05-21T17:16:29.405Z,30.70
2023-05-21T17:18:59.373Z,31.83
2023-05-21T17:21:30.821Z,29.02
2023-05-21T17:24:01.724Z,30.00
2023-05-21T17:26:31.535Z,29.00
2023-05-21T17:29:01.742Z,30.35
2023-05-21T17:31:33.700Z,28.17
2023-05-21T17:34:03.972Z,30.02
2023-05-21T17:36:35.710Z,29.38
2023-05-21T17:39:06.258Z,28.70
2023-05-21T17:41:36.286Z,29.75
2023-05-21T17:44:06.386Z,27.35
2023-05-21T17:46:36.372Z,29.88
2023-05-21T17:49:07.675Z,31.83
2023-05-21T17:51:38.360Z,27.58
2023-05-21T17:54:09.630Z,28.63
2023-05-21T17:56:43.674Z,28.23
2023-05-21T17:59:17.552Z,29.77
2023-05-21T18:01:48.082Z,29.35
2023-05-21T18:04:18.493Z,30.08
2023-05-21T18:06:49.220Z,30.08
2023-05-21T18:09:19.532Z,29.38
2023-05-21T18:11:49.318Z,29.77
2023-05-21T18:14:19.401Z,31.13
2023-05-21T18:16:49.272Z,28.48
2023-05-21T18:19:19.608Z,29.38
2023-05-21T18:21:50.964Z,30.15
2023-05-21T18:24:21.168Z,31.17
2023-05-21T18:26:51.551Z,29.27
2023-05-21T18:29:21.564Z,29.85
2023-05-21T18:31:52.371Z,30.63
2023-05-21T18:34:22.684Z,30.80
2023-05-21T18:36:52.592Z,30.85
2023-05-21T18:39:26.071Z,30.70
2023-05-21T18:44:29.440Z,29.42
2023-05-21T18:47:00.073Z,29.02
2023-05-21T18:49:36.446Z,29.45
2023-05-21T18:52:07.876Z,28.80
2023-05-21T18:54:38.021Z,30.10
2023-05-21T18:57:08.109Z,28.80
2023-05-21T18:59:40.193Z,30.38
2023-05-21T19:02:10.992Z,29.60
2023-05-21T19:04:41.311Z,28.92
2023-05-21T19:07:11.803Z,29.55
2023-05-21T19:09:42.018Z,29.67
2023-05-21T19:12:11.963Z,28.90
2023-05-21T19:14:46.380Z,28.90
2023-05-21T19:17:16.617Z,29.98
2023-05-21T19:19:46.447Z,30.38
2023-05-21T19:22:16.501Z,29.40
2023-05-21T19:24:48.462Z,29.23
2023-05-21T19:27:20.138Z,29.60
2023-05-21T19:29:50.470Z,29.25
2023-05-21T19:32:22.765Z,30.85
2023-05-21T19:34:53.853Z,30.83
2023-05-21T19:37:23.868Z,30.98
2023-05-21T19:39:54.071Z,30.92
2023-05-21T19:42:24.126Z,31.15
2023-05-21T19:44:54.256Z,31.77
2023-05-21T19:47:24.332Z,31.08
2023-05-21T19:49:54.862Z,31.50
2023-05-21T19:52:24.690Z,32.45
2023-05-21T19:54:54.741Z,33.47
2023-05-21T19:57:24.543Z,31.88
2023-05-21T19:59:54.586Z,32.53
2023-05-21T20:02:25.703Z,32.03
2023-05-21T20:04:58.374Z,33.08
2023-05-21T20:07:28.865Z,32.95
2023-05-21T20:09:58.640Z,32.20
2023-05-21T20:12:29.035Z,31.65
2023-05-21T20:15:01.016Z,31.33
2023-05-21T20:17:31.911Z,32.30
2023-05-21T20:20:02.907Z,30.20
2023-05-21T20:22:33.433Z,31.67
2023-05-21T20:25:05.484Z,31.60
2023-05-21T20:27:36.667Z,30.92
2023-05-21T20:30:09.009Z,32.55
2023-05-21T20:32:39.172Z,31.70
2023-05-21T20:35:13.574Z,31.48
2023-05-21T20:37:43.806Z,31.30
2023-05-21T20:40:14.972Z,31.17
2023-05-21T20:42:46.503Z,30.67
2023-05-21T20:45:17.886Z,32.50
2023-05-21T20:47:49.329Z,30.67
2023-05-21T20:50:19.670Z,29.83
2023-05-21T20:52:49.575Z,31.67
2023-05-21T20:55:19.946Z,29.98
2023-05-21T20:57:49.821Z,30.40
2023-05-21T21:00:20.514Z,31.10
2023-05-21T21:02:51.274Z,30.08
2023-05-21T21:05:21.622Z,30.85
2023-05-21T21:07:54.857Z,30.10
2023-05-21T21:10:25.856Z,30.60
2023-05-21T21:12:55.796Z,29.73
2023-05-21T21:15:25.784Z,29.45
2023-05-21T21:17:55.623Z,31.95
2023-05-21T21:20:26.627Z,30.98
2023-05-21T21:22:56.457Z,32.05
2023-05-21T21:25:26.787Z,31.58
2023-05-21T21:27:56.579Z,31.77
2023-05-21T21:30:26.588Z,32.20
2023-05-21T21:32:56.590Z,30.83
2023-05-21T21:35:26.803Z,32.10
2023-05-21T21:37:56.673Z,30.67
2023-05-21T21:40:26.694Z,33.75
2023-05-21T21:42:56.580Z,32.47
2023-05-21T21:45:26.599Z,32.67
2023-05-21T21:47:56.360Z,33.72
2023-05-21T21:50:26.525Z,31.63
2023-05-21T21:52:57.826Z,32.42
2023-05-21T21:55:28.067Z,33.08
2023-05-21T21:57:58.164Z,32.50
2023-05-21T22:00:28.195Z,33.45
2023-05-21T22:02:58.363Z,35.17
2023-05-21T22:05:32.158Z,32.17
2023-05-21T22:08:03.965Z,32.00
2023-05-21T22:10:39.567Z,34.05
2023-05-21T22:13:09.879Z,33.72
2023-05-21T22:15:40.064Z,35.13
2023-05-21T22:18:11.774Z,34.13
2023-05-21T22:20:41.802Z,34.38
2023-05-21T22:23:11.599Z,32.65
2023-05-21T22:25:42.906Z,34.22
2023-05-21T22:28:12.757Z,33.92
2023-05-21T22:30:43.107Z,32.50
2023-05-21T22:33:13.052Z,33.55
2023-05-21T22:35:43.165Z,32.95
2023-05-21T22:38:12.936Z,33.40
2023-05-21T22:40:43.173Z,32.08
2023-05-21T22:43:12.999Z,34.50
2023-05-21T22:45:42.989Z,33.40
2023-05-21T22:48:12.823Z,34.65
2023-05-21T22:50:42.962Z,33.25
2023-05-21T22:53:12.750Z,34.30
2023-05-21T22:55:42.751Z,33.28
2023-05-21T22:58:13.617Z,33.03
2023-05-21T23:00:44.514Z,33.78
2023-05-21T23:03:14.875Z,33.70
2023-05-21T23:05:45.521Z,35.70
2023-05-21T23:08:16.886Z,34.53
2023-05-21T23:10:46.839Z,33.58
2023-05-21T23:13:16.924Z,34.35
2023-05-21T23:15:47.317Z,35.35
2023-05-21T23:18:18.052Z,34.90
2023-05-21T23:20:48.188Z,33.70
2023-05-21T23:23:18.089Z,44.78
2023-05-21T23:25:48.332Z,36.00
2023-05-21T23:28:18.253Z,34.78
2023-05-21T23:30:48.356Z,36.38
2023-05-21T23:33:18.263Z,37.95
2023-05-21T23:35:48.583Z,44.00
2023-05-21T23:38:18.481Z,36.55
2023-05-21T23:40:48.494Z,35.83
2023-05-21T23:43:18.388Z,35.50
2023-05-21T23:45:48.525Z,36.78
2023-05-21T23:48:18.439Z,34.78
2023-05-21T23:50:48.457Z,37.20
2023-05-21T23:53:19.365Z,42.42
2023-05-21T23:55:50.574Z,36.85
2023-05-21T23:58:20.836Z,38.08
